sensor_id;sensor_type;location;lat;lon;timestamp;pressure;altitude;pressure_sealevel;temperature;humidity
15558;BME280;7880;50.110;9.372;2024-03-29T00:02:05;4.724195640027756;;;4.937;100.0
15558;BME280;7880;50.110;9.372;2024-03-29T00:07:10;4.3813425335159994;;;4.625;100.0
15558;BME280;7880;50.110;9.372;2024-03-29T00:12:14;4.386384481214918;;;4.687;100.0
15558;BME280;7880;50.110;9.372;2024-03-29T00:17:19;4.391426429204875;;;4.625;100.0
15558;BME280;7880;50.110;9.372;2024-03-29T00:22:25;4.280503640655661;;;4.5;100.0
15558;BME280;7880;50.110;9.372;2024-03-29T00:27:30;4.209916484920541;;;4.312;100.0
15558;BME280;7880;50.110;9.372;2024-03-29T00:32:36;4.0485746288730295;;;4.25;100.0
15558;BME280;7880;50.110;9.372;2024-03-29T00:37:39;3.9679038126079833;;;4.125;100.0
15558;BME280;7880;50.110;9.372;2024-03-29T00:42:44;4.038490772765362;;;4.25;100.0
15558;BME280;7880;50.110;9.372;2024-03-29T00:47:48;3.892274990025908;;;4.062;100.0
15558;BME280;7880;50.110;9.372;2024-03-29T00:52:53;4.078826204180951;;;4.187;100.0
15558;BME280;7880;50.110;9.372;2024-03-29T00:57:57;3.993113434687257;;;4.187;100.0
15558;BME280;7880;50.110;9.372;2024-03-29T01:03:03;3.8670653970504647;;;4.125;100.0
15558;BME280;7880;50.110;9.372;2024-03-29T01:08:07;4.0485746288730295;;;4.187;100.0
15558;BME280;7880;50.110;9.372;2024-03-29T01:13:16;4.028406917821849;;;4.25;100.0
15558;BME280;7880;50.110;9.372;2024-03-29T01:18:15;4.149413253978127;;;4.25;100.0
15558;BME280;7880;50.110;9.372;2024-03-29T01:23:21;4.1645390577847134;;;4.25;100.0
15558;BME280;7880;50.110;9.372;2024-03-29T01:28:29;4.083868134417571;;;4.312;100.0
15558;BME280;7880;50.110;9.372;2024-03-29T01:33:33;4.300671409914503;;;4.437;100.0
15558;BME280;7880;50.110;9.372;2024-03-29T01:38:34;4.361174745630706;;;4.5;100.0
15558;BME280;7880;50.110;9.372;2024-03-29T01:43:37;4.406552274920978;;;4.5;100.0
15558;BME280;7880;50.110;9.372;2024-03-29T01:48:51;4.7040277729800435;;;4.75;100.0
15558;BME280;7880;50.110;9.372;2024-03-29T01:53:47;4.734279575297842;;;4.812;100.0
15558;BME280;7880;50.110;9.372;2024-03-29T01:58:56;4.754447449330473;;;4.875;100.0
15558;BME280;7880;50.110;9.372;2024-03-29T02:03:59;4.744363511732081;;;4.812;100.0
15558;BME280;7880;50.110;9.372;2024-03-29T02:09:01;4.920832587778568;;;5.0;100.0
15558;BME280;7880;50.110;9.372;2024-03-29T02:14:06;4.961168426647783;;;5.062;100.0
15558;BME280;7880;50.110;9.372;2024-03-29T02:19:12;4.9712523892754685;;;5.062;100.0
15558;BME280;7880;50.110;9.372;2024-03-29T02:24:18;4.8905807208502665;;;5.0;100.0
15558;BME280;7880;50.110;9.372;2024-03-29T02:29:23;4.9813363530673085;;;5.062;100.0
15558;BME280;7880;50.110;9.372;2024-03-29T02:34:27;5.001504284143448;;;5.062;100.0
15558;BME280;7880;50.110;9.372;2024-03-29T02:39:42;5.112427988299169;;;5.187;100.0
15558;BME280;7880;50.110;9.372;2024-03-29T02:44:48;5.142679932061583;;;5.187;100.0
15558;BME280;7880;50.110;9.372;2024-03-29T02:49:41;5.1477219237072855;;;5.25;100.0
15558;BME280;7880;50.110;9.372;2024-03-29T02:54:49;5.112427988299169;;;5.25;100.0
15558;BME280;7880;50.110;9.372;2024-03-29T02:59:53;5.172931886301376;;;5.25;100.0
15558;BME280;7880;50.110;9.372;2024-03-29T03:05:01;5.1527639156440275;;;5.25;100.0
15558;BME280;7880;50.110;9.372;2024-03-29T03:11:04;5.193099861615337;;;5.312;100.0
15558;BME280;7880;50.110;9.372;2024-03-29T03:14:32;5.319149812828982;;;5.375;100.0
15558;BME280;7880;50.110;9.372;2024-03-29T03:19:36;5.304023809079081;;;5.375;100.0
15558;BME280;7880;50.110;9.372;2024-03-29T03:24:41;5.29898180841119;;;5.375;100.0
15558;BME280;7880;50.110;9.372;2024-03-29T03:29:43;5.349401828186819;;;5.375;100.0
15558;BME280;7880;50.110;9.372;2024-03-29T03:34:49;5.445199945941567;;;5.5;100.0
15558;BME280;7880;50.110;9.372;2024-03-29T03:39:54;5.339317821903387;;;5.437;100.0
15558;BME280;7880;50.110;9.372;2024-03-29T03:45:00;5.218309837306151;;;5.375;100.0
15558;BME280;7880;50.110;9.372;2024-03-29T03:50:09;5.2435198202729225;;;5.312;100.0
15558;BME280;7880;50.110;9.372;2024-03-29T03:55:14;5.2888978079485245;;;5.375;100.0
15558;BME280;7880;50.110;9.372;2024-03-29T04:00:14;5.233435826213099;;;5.375;100.0
15558;BME280;7880;50.110;9.372;2024-03-29T04:05:22;5.218309837306151;;;5.312;100.0
15558;BME280;7880;50.110;9.372;2024-03-29T04:10:30;5.314107811287977;;;5.375;100.0
15558;BME280;7880;50.110;9.372;2024-03-29T04:15:29;5.2435198202729225;;;5.312;100.0
15558;BME280;7880;50.110;9.372;2024-03-29T04:20:33;5.278813808650011;;;5.375;100.0
15558;BME280;7880;50.110;9.372;2024-03-29T04:25:38;5.304023809079081;;;5.375;100.0
15558;BME280;7880;50.110;9.372;2024-03-29T04:30:50;5.238477823097492;;;5.312;100.0
15558;BME280;7880;50.110;9.372;2024-03-29T04:36:03;5.263687811885029;;;5.312;100.0
15558;BME280;7880;50.110;9.372;2024-03-29T04:40:53;5.304023809079081;;;5.375;100.0
15558;BME280;7880;50.110;9.372;2024-03-29T04:46:08;5.238477823097492;;;5.375;100.0
15558;BME280;7880;50.110;9.372;2024-03-29T04:51:00;4.996462300937855;;;5.125;100.0
15558;BME280;7880;50.110;9.372;2024-03-29T04:56:06;5.062008105311543;;;5.187;100.0
15558;BME280;7880;50.110;9.372;2024-03-29T05:01:10;5.056966118613491;;;5.125;100.0
15558;BME280;7880;50.110;9.372;2024-03-29T05:06:16;5.18805786735029;;;5.25;100.0
15558;BME280;7880;50.110;9.372;2024-03-29T05:11:32;5.157805907871807;;;5.187;100.0
15558;BME280;7880;50.110;9.372;2024-03-29T05:16:23;5.062008105311543;;;5.187;100.0
15558;BME280;7880;50.110;9.372;2024-03-29T05:21:29;5.112427988299169;;;5.25;100.0
15558;BME280;7880;50.110;9.372;2024-03-29T05:26:34;5.031756189488806;;;5.125;100.0
15558;BME280;7880;50.110;9.372;2024-03-29T05:31:39;5.117469978198642;;;5.187;100.0
15558;BME280;7880;50.110;9.372;2024-03-29T05:36:44;5.1073859986907335;;;5.25;100.0
15558;BME280;7880;50.110;9.372;2024-03-29T05:41:53;5.112427988299169;;;5.187;100.0
15558;BME280;7880;50.110;9.372;2024-03-29T05:46:52;5.1275539588707035;;;5.187;100.0
15558;BME280;7880;50.110;9.372;2024-03-29T05:51:57;5.062008105311543;;;5.125;100.0
15558;BME280;7880;50.110;9.372;2024-03-29T05:57:01;5.067050092300633;;;5.187;100.0
15558;BME280;7880;50.110;9.372;2024-03-29T06:02:09;5.137637940706918;;;5.25;100.0
15558;BME280;7880;50.110;9.372;2024-03-29T06:07:28;5.162847900390625;;;5.25;100.0
15558;BME280;7880;50.110;9.372;2024-03-29T06:12:16;5.238477823097492;;;5.312;100.0
15558;BME280;7880;50.110;9.372;2024-03-29T06:17:25;5.18805786735029;;;5.312;100.0
15558;BME280;7880;50.110;9.372;2024-03-29T06:22:24;5.2888978079485245;;;5.375;100.0
15558;BME280;7880;50.110;9.372;2024-03-29T06:27:30;5.238477823097492;;;5.375;100.0
15558;BME280;7880;50.110;9.372;2024-03-29T06:32:45;5.2435198202729225;;;5.375;100.0
15558;BME280;7880;50.110;9.372;2024-03-29T06:37:37;5.293939808034338;;;5.375;100.0
15558;BME280;7880;50.110;9.372;2024-03-29T06:42:49;5.364527839794755;;;5.437;100.0
15558;BME280;7880;50.110;9.372;2024-03-29T06:47:51;5.3695698442461435;;;5.437;100.0
15558;BME280;7880;50.110;9.372;2024-03-29T06:52:55;5.359485835634405;;;5.375;100.0
15558;BME280;7880;50.110;9.372;2024-03-29T06:57:58;5.450241955049568;;;5.437;100.0
15558;BME280;7880;50.110;9.372;2024-03-29T07:03:02;5.52083011312061;;;5.5;100.0
15558;BME280;7880;50.110;9.372;2024-03-29T07:08:09;5.500662062136689;;;5.562;100.0
15558;BME280;7880;50.110;9.372;2024-03-29T07:13:16;5.540998168761144;;;5.562;100.0
15558;BME280;7880;50.110;9.372;2024-03-29T07:18:19;5.641838516813005;;;5.625;100.0
15558;BME280;7880;50.110;9.372;2024-03-29T07:23:23;5.677132666134275;;;5.687;100.0
15558;BME280;7880;50.110;9.372;2024-03-29T07:28:28;5.833435498835752;;;5.812;100.0
15558;BME280;7880;50.110;9.372;2024-03-29T07:33:45;5.843519562162692;;;5.875;100.0
15558;BME280;7880;50.110;9.372;2024-03-29T07:38:38;5.949402297381312;;;5.937;100.0
15558;BME280;7880;50.110;9.372;2024-03-29T07:43:51;5.979654531017877;;;6.0;100.0
15558;BME280;7880;50.110;9.372;2024-03-29T07:48:50;6.014948816836113;;;6.0;100.0
15558;BME280;7880;50.110;9.372;2024-03-29T07:53:55;6.0552851609478235;;;6.062;100.0
15558;BME280;7880;50.110;9.372;2024-03-29T07:59:00;6.0552851609478235;;;6.125;100.0
15558;BME280;7880;50.110;9.372;2024-03-29T08:04:05;6.176294305041665;;;6.187;100.0
15558;BME280;7880;50.110;9.372;2024-03-29T08:09:14;6.25696716090315;;;6.25;100.0
15558;BME280;7880;50.110;9.372;2024-03-29T08:14:16;6.342682151892222;;;6.312;100.0
15558;BME280;7880;50.110;9.372;2024-03-29T08:18:46;6.3527662740089;;;6.375;100.0
15558;BME280;7880;50.110;9.372;2024-03-29T08:23:51;6.3275559708999936;;;6.375;100.0
15558;BME280;7880;50.110;9.372;2024-03-29T08:28:57;6.347724212805042;;;6.375;100.0
15558;BME280;7880;50.110;9.372;2024-03-29T08:34:35;6.604869705275632;;;6.625;100.0
15558;BME280;7880;50.110;9.372;2024-03-29T08:39:23;7.02336300756433;;;7.125;100.0
15558;BME280;7880;50.110;9.372;2024-03-29T08:44:23;6.604869705275632;;;6.687;100.0
15558;BME280;7880;50.110;9.372;2024-03-29T08:49:29;6.665374637045898;;;6.687;100.0
15558;BME280;7880;50.110;9.372;2024-03-29T08:54:35;6.665374637045898;;;6.687;100.0
15558;BME280;7880;50.110;9.372;2024-03-29T08:59:41;6.786384626314975;;;6.75;100.0
15558;BME280;7880;50.110;9.372;2024-03-29T09:04:43;6.77630045413971;;;6.812;100.0
15558;BME280;7880;50.110;9.372;2024-03-29T09:09:44;6.862015954736853;;;6.875;100.0
15558;BME280;7880;50.110;9.372;2024-03-29T09:15:00;6.821679238096112;;;6.812;100.0
15558;BME280;7880;50.110;9.372;2024-03-29T09:20:08;6.730921693757409;;;6.75;100.0
15558;BME280;7880;50.110;9.372;2024-03-29T09:25:15;6.766216283128597;;;6.75;100.0
15558;BME280;7880;50.110;9.372;2024-03-29T09:30:20;6.862015954736853;;;6.812;100.0
15558;BME280;7880;50.110;9.372;2024-03-29T09:35:37;6.8922685044410175;;;6.875;100.0
15558;BME280;7880;50.110;9.372;2024-03-29T09:40:25;6.801510886760662;;;6.875;100.0
15558;BME280;7880;50.110;9.372;2024-03-29T09:45:31;6.841847594088176;;;6.875;100.0
15558;BME280;7880;50.110;9.372;2024-03-29T09:50:54;6.831763415510068;;;6.875;100.0
15558;BME280;7880;50.110;9.372;2024-03-29T09:55:37;6.841847594088176;;;6.812;100.0
15558;BME280;7880;50.110;9.372;2024-03-29T10:00:45;6.8922685044410175;;;6.875;100.0
15558;BME280;7880;50.110;9.372;2024-03-29T10:05:49;6.846889683813788;;;6.812;100.0
15558;BME280;7880;50.110;9.372;2024-03-29T10:10:55;6.957815731409937;;;6.937;100.0
15558;BME280;7880;50.110;9.372;2024-03-29T10:42:48;7.341015888750553;;;7.375;100.0
15558;BME280;7880;50.110;9.372;2024-03-29T10:47:51;7.351100126118399;;;7.375;100.0
15558;BME280;7880;50.110;9.372;2024-03-29T10:53:03;7.446900439175079;;;7.437;100.0
15558;BME280;7880;50.110;9.372;2024-03-29T10:58:30;7.472111065336503;;;7.5;100.0
15558;BME280;7880;50.110;9.372;2024-03-29T11:03:13;7.618332840554649;;;7.625;100.0
15558;BME280;7880;50.110;9.372;2024-03-29T11:08:21;7.6788384743093046;;;7.687;100.0
15558;BME280;7880;50.110;9.372;2024-03-29T11:13:23;7.6788384743093046;;;7.687;100.0
15558;BME280;7880;50.110;9.372;2024-03-29T11:18:20;7.719175586762139;;;7.75;100.0
15558;BME280;7880;50.110;9.372;2024-03-29T11:23:39;7.925903580430895;;;7.875;100.0
15558;BME280;7880;50.110;9.372;2024-03-29T11:28:49;8.077168275997973;;;8.0;100.0
15558;BME280;7880;50.110;9.372;2024-03-29T11:33:58;8.258686256431975;;;8.187;100.0
15558;BME280;7880;50.110;9.372;2024-03-29T11:39:26;8.36961409682408;;;8.312;100.0
15558;BME280;7880;50.110;9.372;2024-03-29T11:44:24;8.414993708493421;;;8.375;100.0
15558;BME280;7880;50.110;9.372;2024-03-29T11:49:55;8.455331160878995;;;8.437;100.0
15558;BME280;7880;50.110;9.372;2024-03-29T11:54:49;8.420035889022984;;;8.375;100.0
15558;BME280;7880;50.110;9.372;2024-03-29T11:59:58;8.576343629794428;;;8.5;100.0
15558;BME280;7880;50.110;9.372;2024-03-29T12:05:26;8.828453478455776;;;8.75;100.0
15558;BME280;7880;50.110;9.372;2024-03-29T12:10:28;8.828453478455776;;;8.75;100.0
15558;BME280;7880;50.110;9.372;2024-03-29T12:15:42;8.808284663787344;;;8.812;100.0
15558;BME280;7880;50.110;9.372;2024-03-29T12:21:06;8.772989249322563;;;8.75;100.0
15558;BME280;7880;50.110;9.372;2024-03-29T12:26:25;8.742736048274674;;;8.75;100.0
15558;BME280;7880;50.110;9.372;2024-03-29T12:31:34;8.732651650253683;;;8.75;100.0
15558;BME280;7880;50.110;9.372;2024-03-29T12:36:34;8.742736048274674;;;8.75;100.0
15558;BME280;7880;50.110;9.372;2024-03-29T12:41:50;8.757862647488945;;;8.75;100.0
15558;BME280;7880;50.110;9.372;2024-03-29T12:47:09;8.73769384911866;;;8.75;100.0
15558;BME280;7880;50.110;9.372;2024-03-29T12:52:39;8.803242460847832;;;8.75;100.0
15558;BME280;7880;50.110;9.372;2024-03-29T12:57:31;8.788115853775526;;;8.75;100.0
15558;BME280;7880;50.110;9.372;2024-03-29T13:02:54;8.808284663787344;;;8.75;100.0
15558;BME280;7880;50.110;9.372;2024-03-29T13:07:57;8.858706709189573;;;8.812;100.0
15558;BME280;7880;50.110;9.372;2024-03-29T13:13:12;8.919213202089304;;;8.875;100.0
15558;BME280;7880;50.110;9.372;2024-03-29T13:18:19;8.939382042369107;;;8.875;100.0
15558;BME280;7880;50.110;9.372;2024-03-29T13:23:19;9.004930805438198;;;8.937;100.0
15558;BME280;7880;50.110;9.372;2024-03-29T13:28:42;9.090648492897163;;;9.062;100.0
15558;BME280;7880;50.110;9.372;2024-03-29T13:34:19;9.241915205359692;;;9.125;100.0
15558;BME280;7880;50.110;9.372;2024-03-29T13:39:14;9.373013234703103;;;9.25;100.0
15558;BME280;7880;50.110;9.372;2024-03-29T13:44:31;9.33771759206429;;;9.25;100.0
15558;BME280;7880;50.110;9.372;2024-03-29T13:49:53;9.352844294306124;;;9.25;100.0
15558;BME280;7880;50.110;9.372;2024-03-29T13:55:13;9.347802059934475;;;9.25;100.0
15558;BME280;7880;50.110;9.372;2024-03-29T14:00:50;9.322590892441804;;;9.25;100.0
15558;BME280;7880;50.110;9.372;2024-03-29T14:06:00;9.272168579284335;;;9.187;100.0
15558;BME280;7880;50.110;9.372;2024-03-29T14:10:54;9.2620841201453;;;9.187;100.0
15558;BME280;7880;50.110;9.372;2024-03-29T14:15:53;9.463773524115094;;;9.312;100.0
15558;BME280;7880;50.110;9.372;2024-03-29T14:21:58;9.509153704182244;;;9.375;100.0
15558;BME280;7880;50.110;9.372;2024-03-29T14:26:49;9.418393367622048;;;9.312;100.0
15558;BME280;7880;50.110;9.372;2024-03-29T14:32:00;9.393182179756696;;;9.312;100.0
15558;BME280;7880;50.110;9.372;2024-03-29T14:37:45;9.438562323153018;;;9.312;100.0
15558;BME280;7880;50.110;9.372;2024-03-29T14:42:29;9.458731283340603;;;9.375;100.0
15558;BME280;7880;50.110;9.372;2024-03-29T14:47:43;9.418393367622048;;;9.312;100.0
15558;BME280;7880;50.110;9.372;2024-03-29T14:53:36;9.4789002481848;;;9.375;100.0
15558;BME280;7880;50.110;9.372;2024-03-29T14:58:24;9.519238191843034;;;9.375;100.0
15558;BME280;7880;50.110;9.372;2024-03-29T15:04:08;9.509153704182244;;;9.375;100.0
15558;BME280;7880;50.110;9.372;2024-03-29T15:08:48;9.544449416088174;;;9.437;100.0
15558;BME280;7880;50.110;9.372;2024-03-29T15:14:27;9.4789002481848;;;9.375;100.0
15558;BME280;7880;50.110;9.372;2024-03-29T15:19:17;9.367970999167301;;;9.312;100.0
15558;BME280;7880;50.110;9.372;2024-03-29T15:24:32;9.342759825853864;;;9.25;100.0
15558;BME280;7880;50.110;9.372;2024-03-29T15:30:29;9.383097706647822;;;9.312;100.0
15558;BME280;7880;50.110;9.372;2024-03-29T15:35:14;9.342759825853864;;;9.312;100.0
15558;BME280;7880;50.110;9.372;2024-03-29T15:40:28;9.352844294306124;;;9.312;100.0
15558;BME280;7880;50.110;9.372;2024-03-29T15:45:48;9.317548659816385;;;9.25;100.0
15558;BME280;7880;50.110;9.372;2024-03-29T15:50:55;9.347802059934475;;;9.25;100.0
15558;BME280;7880;50.110;9.372;2024-03-29T15:55:12;9.342759825853864;;;9.25;100.0
15558;BME280;7880;50.110;9.372;2024-03-29T16:00:19;9.458731283340603;;;9.375;100.0
15558;BME280;7880;50.110;9.372;2024-03-29T16:05:41;9.504111460788408;;;9.437;100.0
15558;BME280;7880;50.110;9.372;2024-03-29T16:10:51;9.509153704182244;;;9.437;100.0
15558;BME280;7880;50.110;9.372;2024-03-29T16:16:00;9.534364925517002;;;9.437;100.0
15558;BME280;7880;50.110;9.372;2024-03-29T16:21:56;9.488984732353128;;;9.437;100.0
15558;BME280;7880;50.110;9.372;2024-03-29T16:26:56;9.514195947867119;;;9.437;100.0
15558;BME280;7880;50.110;9.372;2024-03-29T16:32:41;9.569660647609272;;;9.5;100.0
15558;BME280;7880;50.110;9.372;2024-03-29T16:37:37;9.519238191843034;;;9.437;100.0
15558;BME280;7880;50.110;9.372;2024-03-29T16:42:26;9.549491661810317;;;9.437;100.0
15558;BME280;7880;50.110;9.372;2024-03-29T16:47:34;9.504111460788408;;;9.375;100.0
15558;BME280;7880;50.110;9.372;2024-03-29T16:52:57;9.468815765180626;;;9.375;100.0
15558;BME280;7880;50.110;9.372;2024-03-29T16:58:37;9.483942490123445;;;9.375;100.0
15558;BME280;7880;50.110;9.372;2024-03-29T17:03:27;9.483942490123445;;;9.375;100.0
15558;BME280;7880;50.110;9.372;2024-03-29T17:08:55;9.433520083833718;;;9.375;100.0
15558;BME280;7880;50.110;9.372;2024-03-29T17:14:02;9.45368904285715;;;9.375;100.0
15558;BME280;7880;50.110;9.372;2024-03-29T17:19:04;9.418393367622048;;;9.375;100.0
15558;BME280;7880;50.110;9.372;2024-03-29T17:24:12;9.433520083833718;;;9.312;100.0
15558;BME280;7880;50.110;9.372;2024-03-29T17:29:15;9.4133511294669;;;9.312;100.0
15558;BME280;7880;50.110;9.372;2024-03-29T17:34:35;9.317548659816385;;;9.25;100.0
15558;BME280;7880;50.110;9.372;2024-03-29T17:40:21;9.2620841201453;;;9.187;100.0
15558;BME280;7880;50.110;9.372;2024-03-29T17:45:22;9.25704189101234;;;9.187;100.0
15558;BME280;7880;50.110;9.372;2024-03-29T17:51:00;9.201577389758313;;;9.125;100.0
15558;BME280;7880;50.110;9.372;2024-03-29T17:56:13;9.130986257275799;;;9.125;100.0
15558;BME280;7880;50.110;9.372;2024-03-29T18:01:24;9.110817372758174;;;9.062;100.0
15558;BME280;7880;50.110;9.372;2024-03-29T18:06:39;9.14611292371992;;;9.062;100.0
15558;BME280;7880;50.110;9.372;2024-03-29T18:12:12;9.125944035709836;;;9.062;100.0
15558;BME280;7880;50.110;9.372;2024-03-29T18:17:18;9.105775152356363;;;9.062;100.0
15558;BME280;7880;50.110;9.372;2024-03-29T18:23:09;9.090648492897163;;;9.062;100.0
15558;BME280;7880;50.110;9.372;2024-03-29T18:28:16;9.070479617692763;;;9.0;100.0
15558;BME280;7880;50.110;9.372;2024-03-29T18:34:17;9.020057450054447;;;9.0;100.0
15558;BME280;7880;50.110;9.372;2024-03-29T18:39:08;9.030141881253803;;;9.0;100.0
15558;BME280;7880;50.110;9.372;2024-03-29T18:44:35;9.130986257275799;;;9.062;100.0
15558;BME280;7880;50.110;9.372;2024-03-29T18:49:51;9.085606273659504;;;9.0;100.0
15558;BME280;7880;50.110;9.372;2024-03-29T18:54:49;9.040226313617314;;;9.0;100.0
15558;BME280;7880;50.110;9.372;2024-03-29T19:00:16;8.974677524063736;;;8.937;100.0
15558;BME280;7880;50.110;9.372;2024-03-29T19:05:40;8.934339831862598;;;8.937;100.0
15558;BME280;7880;50.110;9.372;2024-03-29T19:10:36;8.91417099274695;;;8.875;100.0
15558;BME280;7880;50.110;9.372;2024-03-29T19:15:32;8.863748915330508;;;8.812;100.0
15558;BME280;7880;50.110;9.372;2024-03-29T19:21:14;8.778031450515845;;;8.812;100.0
15558;BME280;7880;50.110;9.372;2024-03-29T19:25:59;8.73769384911866;;;8.75;100.0
15558;BME280;7880;50.110;9.372;2024-03-29T19:31:06;8.707440660294377;;;8.75;100.0
15558;BME280;7880;50.110;9.372;2024-03-29T19:36:08;8.712482857704163;;;8.687;100.0
15558;BME280;7880;50.110;9.372;2024-03-29T19:41:27;8.662060896703043;;;8.687;100.0
15558;BME280;7880;50.110;9.372;2024-03-29T19:46:27;8.641892120451667;;;8.625;100.0
15558;BME280;7880;50.110;9.372;2024-03-29T19:51:44;8.510795188322664;;;8.562;100.0
15558;BME280;7880;50.110;9.372;2024-03-29T19:56:53;8.52592174737365;;;8.562;100.0
15558;BME280;7880;50.110;9.372;2024-03-29T20:01:59;8.515837374381954;;;8.562;100.0
15558;BME280;7880;50.110;9.372;2024-03-29T20:07:06;8.500710817077197;;;8.5;100.0
15558;BME280;7880;50.110;9.372;2024-03-29T20:11:58;8.450288978312164;;;8.437;100.0
15558;BME280;7880;50.110;9.372;2024-03-29T20:17:06;8.455331160878995;;;8.437;100.0
15558;BME280;7880;50.110;9.372;2024-03-29T20:22:21;8.3645719192049;;;8.375;100.0
15558;BME280;7880;50.110;9.372;2024-03-29T20:27:19;8.36961409682408;;;8.375;100.0
15558;BME280;7880;50.110;9.372;2024-03-29T20:32:25;8.309107984602452;;;8.312;100.0
15558;BME280;7880;50.110;9.372;2024-03-29T20:37:27;8.309107984602452;;;8.312;100.0
15558;BME280;7880;50.110;9.372;2024-03-29T20:42:57;8.15280072200694;;;8.187;100.0
15558;BME280;7880;50.110;9.372;2024-03-29T20:47:54;8.15280072200694;;;8.187;100.0
15558;BME280;7880;50.110;9.372;2024-03-29T20:52:56;8.12254773574532;;;8.125;100.0
15558;BME280;7880;50.110;9.372;2024-03-29T20:58:00;8.147758556902408;;;8.125;100.0
15558;BME280;7880;50.110;9.372;2024-03-29T21:09:33;7.991451583016897;;;8.062;100.0
15558;BME280;7880;50.110;9.372;2024-03-29T21:14:27;7.991451583016897;;;8.0;100.0
15558;BME280;7880;50.110;9.372;2024-03-29T21:19:46;7.971282961597899;;;7.937;100.0
15558;BME280;7880;50.110;9.372;2024-03-29T21:24:55;7.996493739099241;;;8.0;100.0
15558;BME280;7880;50.110;9.372;2024-03-29T21:30:29;8.011620209092507;;;8.0;100.0
15558;BME280;7880;50.110;9.372;2024-03-29T21:35:10;8.021704523876542;;;8.0;100.0
15558;BME280;7880;50.110;9.372;2024-03-29T21:40:22;7.951114344835514;;;7.937;100.0
15558;BME280;7880;50.110;9.372;2024-03-29T21:45:21;7.925903580430895;;;7.937;100.0
15558;BME280;7880;50.110;9.372;2024-03-29T21:50:45;7.880524222837994;;;7.875;100.0
15558;BME280;7880;50.110;9.372;2024-03-29T21:55:33;7.7897655783744995;;;7.875;100.0
15558;BME280;7880;50.110;9.372;2024-03-29T22:00:53;7.7897655783744995;;;7.875;100.0
15558;BME280;7880;50.110;9.372;2024-03-29T22:06:01;7.709091306902701;;;7.75;100.0
15558;BME280;7880;50.110;9.372;2024-03-29T22:11:37;7.714133446686901;;;7.687;100.0
15558;BME280;7880;50.110;9.372;2024-03-29T22:16:19;7.542700857296586;;;7.625;100.0
15558;BME280;7880;50.110;9.372;2024-03-29T22:21:25;7.638501380482921;;;7.625;100.0
15558;BME280;7880;50.110;9.372;2024-03-29T22:26:30;7.643543516192585;;;7.625;100.0
15558;BME280;7880;50.110;9.372;2024-03-29T22:31:49;7.608248572336743;;;7.625;100.0
15558;BME280;7880;50.110;9.372;2024-03-29T22:36:42;7.487237444525817;;;7.5;100.0
15558;BME280;7880;50.110;9.372;2024-03-29T22:41:45;7.638501380482921;;;7.562;100.0
15558;BME280;7880;50.110;9.372;2024-03-29T22:47:03;7.502363826334476;;;7.5;100.0
15558;BME280;7880;50.110;9.372;2024-03-29T22:52:08;7.305721067130799;;;7.375;100.0
15558;BME280;7880;50.110;9.372;2024-03-29T22:57:12;7.371268604346551;;;7.375;100.0
15558;BME280;7880;50.110;9.372;2024-03-29T23:02:14;7.0284051077673215;;;7.062;100.0
15558;BME280;7880;50.110;9.372;2024-03-29T23:07:34;7.225047242693836;;;7.187;100.0
15558;BME280;7880;50.110;9.372;2024-03-29T23:12:34;7.114120855747023;;;7.062;100.0
15558;BME280;7880;50.110;9.372;2024-03-29T23:17:45;7.346058007288957;;;7.25;100.0
15558;BME280;7880;50.110;9.372;2024-03-29T23:23:02;7.280510488990695;;;7.25;100.0
15558;BME280;7880;50.110;9.372;2024-03-29T23:28:17;7.325889534881571;;;7.312;100.0
15558;BME280;7880;50.110;9.372;2024-03-29T23:33:03;7.3611843646503985;;;7.312;100.0
15558;BME280;7880;50.110;9.372;2024-03-29T23:38:09;7.401521330419928;;;7.375;100.0
15558;BME280;7880;50.110;9.372;2024-03-29T23:43:16;7.411605574772693;;;7.375;100.0
15558;BME280;7880;50.110;9.372;2024-03-29T23:48:24;7.366226484352955;;;7.375;100.0
15558;BME280;7880;50.110;9.372;2024-03-29T23:53:33;7.462026813998818;;;7.375;100.0
15558;BME280;7880;50.110;9.372;2024-03-29T23:58:42;7.487237444525817;;;7.437;100.0
